Time;durP1;ratioP1;P1;durP2;ratioP2;P2;SDS_P1;SDS_P2;PMS_P1;PMS_P2;Temp;Humidity;BMP_temperature;BMP_pressure;BME280_temperature;BME280_humidity;BME280_pressure;Samples;Min_cycle;Max_cycle;Signal;HPM_P1;HPM_P2
2022/06/17 00:00:41;;;;;;;4.72;3.83;;;;;;;19.02;66.16;102476.28;6238418;23;20012;-72
2022/06/17 00:03:06;;;;;;;8.85;4.25;;;;;;;18.99;66.17;102476.41;6236526;23;20000;-73
2022/06/17 00:05:32;;;;;;;4.70;3.45;;;;;;;18.97;66.50;102467.59;6238156;23;20012;-71
2022/06/17 00:07:57;;;;;;;5.45;3.88;;;;;;;18.96;66.95;102474.72;6237864;23;20004;-73
2022/06/17 00:10:25;;;;;;;9.13;3.78;;;;;;;18.93;67.37;102474.84;6211292;23;20015;-73
2022/06/17 00:12:51;;;;;;;4.55;4.05;;;;;;;18.91;68.25;102466.06;6235828;23;20456;-69
2022/06/17 00:15:17;;;;;;;5.47;3.50;;;;;;;18.86;67.63;102468.91;6210769;23;20001;-72
2022/06/17 00:17:46;;;;;;;7.40;4.50;;;;;;;18.82;68.88;102468.16;6237616;23;20067;-72
2022/06/17 00:20:14;;;;;;;;;;;;;;;18.76;68.58;102462.25;6238014;23;20010;-73
2022/06/17 00:22:41;;;;;;;7.95;4.22;;;;;;;18.72;68.18;102460.66;6237544;23;19914;-71
2022/06/17 00:25:28;;;;;;;6.03;4.53;;;;;;;18.66;67.88;102462.63;6211235;23;20000;-72
2022/06/17 00:27:54;;;;;;;8.02;4.78;;;;;;;18.62;68.31;102462.81;6238114;23;20008;-72
2022/06/17 00:30:26;;;;;;;9.55;4.72;;;;;;;18.58;68.75;102470.09;6210359;23;20094;-72
2022/06/17 00:32:56;;;;;;;6.82;4.35;;;;;;;18.54;68.60;102465.81;6236923;23;20032;-73
2022/06/17 00:35:23;;;;;;;7.18;4.47;;;;;;;18.45;68.62;102456.38;6237968;23;20015;-73
2022/06/17 00:37:48;;;;;;;6.90;5.45;;;;;;;18.38;69.39;102469.13;6237408;23;20054;-72
2022/06/17 00:40:18;;;;;;;5.78;4.80;;;;;;;18.35;70.19;102463.03;6210257;23;20008;-72
2022/06/17 00:42:44;;;;;;;7.47;4.72;;;;;;;18.31;69.96;102460.50;6237956;23;20329;-71
2022/06/17 00:45:28;;;;;;;12.57;5.45;;;;;;;18.27;70.19;102469.56;6236334;23;20000;-71
2022/06/17 00:47:59;;;;;;;9.32;5.03;;;;;;;18.24;70.75;102460.84;6210812;23;20086;-73
2022/06/17 00:50:30;;;;;;;7.55;4.90;;;;;;;18.21;70.48;102458.28;6236841;23;20008;-73
2022/06/17 00:53:15;;;;;;;9.57;5.45;;;;;;;18.17;69.93;102452.19;6235817;23;20027;-74
2022/06/17 00:56:02;;;;;;;11.50;5.10;;;;;;;18.15;69.86;102462.91;6236627;23;20008;-72
2022/06/17 00:58:34;;;;;;;7.57;4.97;;;;;;;18.14;69.32;102461.19;6218748;23;20421;-72
2022/06/17 01:01:01;;;;;;;13.80;5.35;;;;;;;18.12;69.57;102457.72;6238315;23;20008;-74
2022/06/17 01:03:34;;;;;;;6.10;4.97;;;;;;;18.09;69.57;102457.81;6210021;23;20012;-74
2022/06/17 01:06:12;;;;;;;7.45;5.15;;;;;;;18.09;69.94;102457.81;6180471;23;20150;-72
2022/06/17 01:11:31;;;;;;;6.93;5.40;;;;;;;18.09;69.91;102449.78;6238631;23;20403;-67
2022/06/17 01:13:59;;;;;;;7.78;5.28;;;;;;;18.10;70.18;102456.91;6237655;23;20004;-70
2022/06/17 01:16:31;;;;;;;11.27;5.75;;;;;;;18.07;71.34;102465.00;6238526;23;20093;-68
2022/06/17 01:19:00;;;;;;;10.48;6.15;;;;;;;18.02;71.32;102465.19;6210383;23;20012;-68
2022/06/17 01:21:50;;;;;;;8.95;5.88;;;;;;;18.03;70.83;102464.25;6210504;23;20425;-67
2022/06/17 01:24:16;;;;;;;7.10;6.20;;;;;;;18.00;70.66;102459.03;6210918;23;20066;-69
2022/06/17 01:26:41;;;;;;;8.30;6.45;;;;;;;18.01;70.74;102465.25;6236939;23;20417;-70
2022/06/17 01:29:11;;;;;;;11.05;6.20;;;;;;;18.00;70.86;102461.69;6208933;23;20008;-67
2022/06/17 01:31:36;;;;;;;12.07;5.82;;;;;;;18.01;70.55;102459.91;6211119;23;20004;-69
2022/06/17 01:34:01;;;;;;;10.07;6.30;;;;;;;18.02;70.95;102458.97;6236949;23;20011;-71
2022/06/17 01:36:28;;;;;;;8.35;6.40;;;;;;;17.99;71.11;102459.09;6212025;23;20011;-73
2022/06/17 01:38:58;;;;;;;10.82;6.65;;;;;;;18.00;72.11;102458.19;6236563;23;20346;-72
2022/06/17 01:41:26;;;;;;;10.23;6.63;;;;;;;18.00;72.09;102452.84;6186346;23;20082;-70
2022/06/17 01:44:06;;;;;;;8.63;6.50;;;;;;;17.98;71.72;102457.38;6210263;23;20019;-73
2022/06/17 01:46:34;;;;;;;9.75;6.63;;;;;;;17.97;71.58;102455.66;6211144;23;20494;-72
2022/06/17 01:49:06;;;;;;;9.80;7.10;;;;;;;18.00;71.54;102450.19;6238244;23;20000;-72
2022/06/17 01:51:34;;;;;;;10.30;6.78;;;;;;;17.99;71.33;102443.09;6185766;23;20368;-72
2022/06/17 01:54:04;;;;;;;10.50;6.60;;;;;;;17.98;71.32;102444.91;6210334;23;20022;-72
2022/06/17 01:56:34;;;;;;;10.90;6.55;;;;;;;17.99;71.15;102435.97;6210890;23;20054;-73
2022/06/17 01:59:27;;;;;;;8.73;6.63;;;;;;;17.99;71.44;102435.09;6212425;23;19992;-70
2022/06/17 02:01:55;;;;;;;10.50;6.28;;;;;;;18.02;71.33;102429.63;6198322;23;20014;-72
2022/06/17 02:04:36;;;;;;;12.00;6.30;;;;;;;18.02;71.26;102434.97;6210684;23;20063;-73
2022/06/17 02:07:19;;;;;;;11.57;6.85;;;;;;;18.05;71.13;102443.72;6208707;23;20000;-74
2022/06/17 02:09:45;;;;;;;11.13;7.55;;;;;;;18.08;71.36;102445.41;6225531;23;20020;-73
2022/06/17 02:12:14;;;;;;;9.65;7.28;;;;;;;18.07;71.70;102449.00;6237432;22;20379;-74
2022/06/17 02:14:39;;;;;;;8.50;7.07;;;;;;;18.13;71.11;102445.25;6235354;23;20004;-72
2022/06/17 02:17:04;;;;;;;10.50;7.57;;;;;;;18.15;71.13;102446.91;6237409;22;20008;-72
2022/06/17 02:19:32;;;;;;;9.25;7.05;;;;;;;18.22;71.04;102446.66;6235972;23;20012;-72
2022/06/17 02:22:10;;;;;;;9.85;7.13;;;;;;;18.26;70.69;102459.84;6235257;23;20027;-72
2022/06/17 02:24:37;;;;;;;14.50;8.20;;;;;;;18.36;69.66;102457.63;6234854;23;20428;-72
2022/06/17 02:27:05;;;;;;;10.23;7.10;;;;;;;18.39;69.48;102462.00;6237264;22;20004;-72
2022/06/17 02:29:32;;;;;;;10.48;7.50;;;;;;;18.43;68.90;102456.44;6236494;23;20011;-74
2022/06/17 02:31:58;;;;;;;9.65;6.03;;;;;;;18.41;69.17;102450.31;6234588;23;20007;-74
2022/06/17 02:34:24;;;;;;;11.43;6.63;;;;;;;18.42;69.52;102448.50;6234503;23;19992;-73
2022/06/17 02:37:10;;;;;;;8.93;6.55;;;;;;;18.43;68.79;102451.13;6234674;22;20008;-73
2022/06/17 02:39:40;;;;;;;12.57;7.30;;;;;;;18.52;68.20;102454.34;6235927;22;20031;-74
2022/06/17 02:42:06;;;;;;;12.60;7.13;;;;;;;18.53;68.02;102450.72;6235165;23;20335;-74
2022/06/17 02:44:35;;;;;;;8.63;5.85;;;;;;;18.57;67.77;102452.34;6235738;23;19992;-73
2022/06/17 02:47:01;;;;;;;11.82;6.20;;;;;;;18.60;67.67;102456.69;6237301;22;20008;-72
2022/06/17 02:49:32;;;;;;;9.13;6.97;;;;;;;18.67;67.20;102445.66;6238009;22;20820;-73
2022/06/17 02:51:58;;;;;;;9.98;7.22;;;;;;;18.71;67.09;102453.53;6234857;23;20012;-72
2022/06/17 02:54:57;;;;;;;8.55;5.88;;;;;;;18.75;66.73;102455.19;6237386;22;20005;-73
2022/06/17 02:57:28;;;;;;;7.63;6.38;;;;;;;18.77;66.42;102458.63;6226101;22;20008;-74
2022/06/17 03:00:00;;;;;;;10.68;6.35;;;;;;;18.75;66.85;102452.50;6237702;23;20036;-74
2022/06/17 03:02:46;;;;;;;8.05;6.50;;;;;;;18.74;66.87;102454.28;6237553;23;20337;-75
2022/06/17 03:05:25;;;;;;;8.63;6.63;;;;;;;18.78;66.31;102455.03;6237844;23;20004;-74
2022/06/17 03:07:51;;;;;;;11.07;7.28;;;;;;;18.78;65.98;102450.56;6235556;23;20296;-73
2022/06/17 03:10:19;;;;;;;8.65;6.68;;;;;;;18.89;66.05;102457.22;6238684;22;20066;-75
2022/06/17 03:12:49;;;;;;;11.57;6.53;;;;;;;18.97;66.24;102454.22;6238209;23;20027;-73
2022/06/17 03:15:17;;;;;;;11.30;6.95;;;;;;;18.93;65.73;102443.69;6238659;23;20012;-73
2022/06/17 03:17:44;;;;;;;6.85;6.13;;;;;;;19.02;65.86;102446.91;6211605;23;20015;-74
2022/06/17 03:20:16;;;;;;;7.47;6.68;;;;;;;19.12;65.42;102450.03;6238726;23;20006;-74
2022/06/17 03:22:43;;;;;;;10.32;6.50;;;;;;;19.14;65.28;102448.19;6211585;23;20012;-72
2022/06/17 03:25:12;;;;;;;11.00;5.82;;;;;;;19.19;65.01;102456.84;6211564;23;20005;-75
2022/06/17 03:27:47;;;;;;;12.23;6.65;;;;;;;19.28;64.82;102443.06;6238938;23;20004;-74
2022/06/17 03:30:18;;;;;;;11.45;7.50;;;;;;;19.31;64.27;102453.63;6238263;23;20004;-73
2022/06/17 03:32:45;;;;;;;9.27;5.93;;;;;;;19.31;64.36;102448.28;6212388;23;20004;-75
2022/06/17 03:35:17;;;;;;;7.78;6.57;;;;;;;19.34;64.21;102444.59;6209636;23;20015;-72
2022/06/17 03:37:57;;;;;;;10.38;6.80;;;;;;;19.33;64.09;102445.53;6209025;23;20019;-72
2022/06/17 03:40:30;;;;;;;8.65;5.93;;;;;;;19.40;63.77;102441.66;6237043;23;20004;-74
2022/06/17 03:43:17;;;;;;;11.10;8.00;;;;;;;19.39;63.73;102441.72;6210508;23;20012;-74
2022/06/17 03:45:47;;;;;;;11.98;6.70;;;;;;;19.41;64.24;102439.81;6238188;23;20000;-75
2022/06/17 03:48:34;;;;;;;10.13;7.43;;;;;;;19.43;64.00;102444.19;6210720;23;20008;-75
2022/06/17 03:50:59;;;;;;;9.35;7.13;;;;;;;19.43;64.34;102436.16;6237167;23;20149;-73
2022/06/17 03:53:25;;;;;;;7.20;5.70;;;;;;;19.49;64.21;102432.31;6235803;23;21120;-75
2022/06/17 03:55:56;;;;;;;6.97;6.05;;;;;;;19.53;64.07;102441.94;6238191;23;20245;-74
2022/06/17 03:58:22;;;;;;;12.30;6.97;;;;;;;19.59;63.25;102448.78;6212537;23;20015;-74
2022/06/17 04:00:51;;;;;;;9.65;6.45;;;;;;;19.64;63.54;102443.22;6214785;23;20004;-73
2022/06/17 04:03:20;;;;;;;9.13;7.15;;;;;;;19.61;63.39;102448.72;6211423;23;20005;-73
2022/06/17 04:05:51;;;;;;;19.55;7.55;;;;;;;19.67;63.86;102445.75;6238824;23;20043;-73
2022/06/17 04:08:16;;;;;;;9.52;6.55;;;;;;;19.63;63.64;102453.06;6236760;23;20027;-73
2022/06/17 04:10:42;;;;;;;8.23;5.53;;;;;;;19.70;63.33;102449.19;6238293;23;20420;-72
2022/06/17 04:13:12;;;;;;;12.65;7.30;;;;;;;19.75;63.60;102438.22;6237781;23;20000;-73
2022/06/17 04:16:03;;;;;;;14.88;7.25;;;;;;;19.75;63.56;102437.38;6211904;23;20004;-74
2022/06/17 04:18:33;;;;;;;14.95;7.25;;;;;;;19.76;63.60;102433.75;6212055;23;20004;-73
2022/06/17 04:20:58;;;;;;;8.55;6.00;;;;;;;19.86;63.61;102429.69;6211992;23;20012;-73
2022/06/17 04:23:25;;;;;;;10.50;6.15;;;;;;;19.96;62.48;102427.47;6237316;23;20006;-73
2022/06/17 04:26:00;;;;;;;8.65;5.95;;;;;;;19.92;63.05;102432.09;6238045;23;20005;-67
2022/06/17 04:28:32;;;;;;;10.02;6.35;;;;;;;20.00;62.88;102421.03;6238111;23;20062;-73
2022/06/17 04:31:06;;;;;;;11.23;6.10;;;;;;;20.02;62.43;102419.16;6211773;23;20012;-74
2022/06/17 04:34:05;;;;;;;13.00;7.00;;;;;;;20.09;62.68;102417.06;6237920;23;20005;-73
2022/06/17 04:36:33;;;;;;;10.18;5.75;;;;;;;20.16;61.89;102418.47;6238373;23;20015;-76
2022/06/17 04:39:23;;;;;;;11.40;6.00;;;;;;;20.14;62.08;102430.22;6212017;23;20358;-74
2022/06/17 04:41:54;;;;;;;9.40;6.10;;;;;;;20.11;62.29;102431.25;6210649;23;20000;-74
2022/06/17 04:44:20;;;;;;;10.40;6.55;;;;;;;20.06;62.72;102419.88;6210930;23;20000;-74
2022/06/17 04:46:50;;;;;;;8.10;6.45;;;;;;;20.08;63.15;102418.84;6238011;23;20004;-74
2022/06/17 04:49:25;;;;;;;7.72;5.85;;;;;;;20.19;62.84;102407.63;6211229;23;20031;-75
2022/06/17 04:51:53;;;;;;;8.02;5.22;;;;;;;20.32;62.32;102410.53;6209292;23;20007;-74
2022/06/17 04:54:19;;;;;;;7.78;6.28;;;;;;;20.33;62.54;102420.31;6209814;23;20085;-75
2022/06/17 04:56:47;;;;;;;9.18;5.82;;;;;;;20.42;62.57;102420.78;6235063;23;20004;-74
2022/06/17 04:59:29;;;;;;;12.43;6.65;;;;;;;20.41;63.02;102411.88;6209774;23;20067;-76
2022/06/17 05:01:55;;;;;;;7.65;6.57;;;;;;;20.49;62.53;102411.50;6235708;23;20306;-76
2022/06/17 05:04:20;;;;;;;7.80;4.88;;;;;;;20.54;62.27;102412.13;6235901;23;20381;-76
2022/06/17 05:06:46;;;;;;;9.27;6.13;;;;;;;20.59;62.14;102406.53;6234342;23;20000;-72
2022/06/17 05:09:32;;;;;;;9.18;5.93;;;;;;;20.52;62.22;102408.66;6237173;23;20023;-75
2022/06/17 05:12:07;;;;;;;14.80;5.68;;;;;;;20.66;61.29;102410.63;6238178;23;20032;-75
2022/06/17 05:14:46;;;;;;;9.23;6.03;;;;;;;20.70;61.53;102405.97;6237804;23;20012;-73
2022/06/17 05:17:11;;;;;;;13.52;5.53;;;;;;;20.82;61.01;102396.41;6237580;23;20004;-77
2022/06/17 05:19:37;;;;;;;10.75;5.85;;;;;;;20.88;60.67;102397.91;6237049;23;20011;-75
2022/06/17 05:22:04;;;;;;;12.07;5.90;;;;;;;20.89;60.32;102402.34;6237221;23;20030;-74
2022/06/17 05:24:30;;;;;;;11.70;6.53;;;;;;;20.89;60.13;102405.84;6211487;23;20028;-75
2022/06/17 05:26:57;;;;;;;17.30;7.00;;;;;;;20.94;60.67;102409.19;6209719;23;20369;-73
2022/06/17 05:29:23;;;;;;;12.05;6.90;;;;;;;20.96;60.36;102406.44;6237101;23;20034;-73
2022/06/17 05:31:49;;;;;;;10.70;6.38;;;;;;;21.01;59.90;102395.47;6237539;23;20004;-75
2022/06/17 05:34:15;;;;;;;8.73;6.35;;;;;;;21.11;60.50;102388.69;6236830;23;20405;-74
2022/06/17 05:36:41;;;;;;;9.25;5.85;;;;;;;21.17;60.48;102380.31;6238049;23;20011;-77
2022/06/17 05:39:06;;;;;;;12.40;6.45;;;;;;;21.27;60.40;102387.81;6237332;23;20011;-76
2022/06/17 05:41:31;;;;;;;12.18;6.80;;;;;;;21.23;60.26;102380.91;6237134;23;20000;-71
2022/06/17 05:43:57;;;;;;;13.10;7.10;;;;;;;21.33;60.24;102371.41;6237494;23;20000;-74
2022/06/17 05:46:22;;;;;;;8.27;5.88;;;;;;;21.38;59.94;102379.19;6237115;23;19992;-76
2022/06/17 05:48:47;;;;;;;11.70;5.90;;;;;;;21.43;59.90;102377.97;6237295;23;20065;-74
2022/06/17 05:51:13;;;;;;;10.68;6.78;;;;;;;21.51;59.47;102380.22;6236231;23;20007;-76
2022/06/17 05:53:38;;;;;;;11.23;6.75;;;;;;;21.53;58.69;102381.03;6237193;23;20007;-74
2022/06/17 05:56:04;;;;;;;9.15;5.65;;;;;;;21.54;58.82;102385.44;6236459;23;20007;-74
2022/06/17 05:58:29;;;;;;;9.10;6.13;;;;;;;21.52;59.03;102378.44;6237198;23;20004;-72
2022/06/17 06:00:55;;;;;;;10.05;5.32;;;;;;;21.69;58.41;102372.09;6236876;23;20011;-71
2022/06/17 06:03:24;;;;;;;9.93;6.30;;;;;;;21.69;59.03;102366.72;6236180;23;20000;-74
2022/06/17 06:05:50;;;;;;;12.20;6.65;;;;;;;21.79;58.56;102372.47;6237301;23;20071;-75
2022/06/17 06:08:15;;;;;;;7.25;5.53;;;;;;;21.82;58.56;102374.94;6235658;23;20028;-74
2022/06/17 06:10:41;;;;;;;7.93;6.05;;;;;;;21.68;57.95;102376.59;6237340;23;20064;-74
2022/06/17 06:13:07;;;;;;;9.18;6.57;;;;;;;21.81;58.16;102376.78;6237201;23;20008;-74
2022/06/17 06:15:40;;;;;;;11.57;6.75;;;;;;;21.80;58.25;102363.47;6237254;23;20008;-73
2022/06/17 06:18:07;;;;;;;11.43;5.75;;;;;;;21.95;58.02;102362.56;6236460;23;20010;-73
2022/06/17 06:20:32;;;;;;;15.40;6.60;;;;;;;21.76;59.19;102362.75;6236414;23;20062;-72
2022/06/17 06:22:58;;;;;;;11.25;5.70;;;;;;;21.94;58.71;102357.28;6236559;23;20004;-73
2022/06/17 06:25:23;;;;;;;16.90;6.65;;;;;;;21.99;58.32;102357.00;6237691;23;20075;-73
2022/06/17 06:27:49;;;;;;;15.70;6.60;;;;;;;22.06;57.51;102353.00;6236444;23;20004;-75
2022/06/17 06:30:16;;;;;;;16.27;7.43;;;;;;;22.06;58.29;102366.41;6236623;23;20035;-73
2022/06/17 06:32:50;;;;;;;10.48;6.90;;;;;;;22.09;58.60;102368.94;6238547;23;20011;-74
2022/06/17 06:35:16;;;;;;;17.08;7.38;;;;;;;22.20;57.28;102370.97;6212784;23;20416;-73
2022/06/17 06:37:42;;;;;;;10.52;6.40;;;;;;;22.11;57.86;102369.72;6238688;23;20026;-72
2022/06/17 06:40:08;;;;;;;12.48;6.28;;;;;;;22.13;58.01;102369.63;6239488;23;20459;-71
2022/06/17 06:42:33;;;;;;;10.75;5.97;;;;;;;22.10;57.71;102373.38;6238941;23;20089;-73
2022/06/17 06:44:59;;;;;;;14.98;7.00;;;;;;;22.04;58.13;102381.78;6239386;23;20415;-74
2022/06/17 06:47:24;;;;;;;9.68;6.82;;;;;;;21.99;58.58;102378.47;6238453;23;20019;-74
2022/06/17 06:49:49;;;;;;;12.75;6.07;;;;;;;22.18;57.81;102379.13;6238710;23;20008;-73
2022/06/17 06:52:16;;;;;;;10.25;7.20;;;;;;;22.17;58.26;102381.91;6236877;23;20007;-73
2022/06/17 06:54:42;;;;;;;12.88;7.40;;;;;;;22.21;57.72;102387.00;6237625;23;20000;-72
2022/06/17 06:57:09;;;;;;;11.82;6.13;;;;;;;22.37;57.57;102393.28;6238671;23;20078;-73
2022/06/17 06:59:34;;;;;;;14.32;6.63;;;;;;;22.48;57.61;102390.81;6237888;23;20035;-70
2022/06/17 07:02:00;;;;;;;10.18;6.50;;;;;;;22.61;57.19;102380.22;6237644;23;20027;-74
2022/06/17 07:04:25;;;;;;;11.82;6.30;;;;;;;22.57;56.75;102376.84;6238210;23;20416;-74
2022/06/17 07:06:51;;;;;;;9.48;5.53;;;;;;;22.68;56.52;102369.97;6237328;23;20500;-72
2022/06/17 07:09:16;;;;;;;11.25;6.70;;;;;;;22.86;56.11;102373.34;6238524;23;20012;-74
2022/06/17 07:11:42;;;;;;;10.85;6.25;;;;;;;22.89;55.40;102370.47;6238362;23;20050;-76
2022/06/17 07:14:07;;;;;;;8.73;5.95;;;;;;;22.92;55.75;102372.09;6237828;23;20109;-69
2022/06/17 07:16:32;;;;;;;9.85;5.70;;;;;;;23.16;54.69;102375.06;6238383;23;20012;-68
2022/06/17 07:18:58;;;;;;;14.18;5.47;;;;;;;23.22;54.09;102385.41;6238743;23;20000;-69
2022/06/17 07:21:23;;;;;;;8.35;5.40;;;;;;;23.36;51.96;102391.75;6238260;23;20011;-71
2022/06/17 07:23:48;;;;;;;10.10;4.63;;;;;;;23.51;52.75;102397.13;6237524;23;20003;-74
2022/06/17 07:26:17;;;;;;;12.57;5.43;;;;;;;23.62;50.36;102397.28;6238454;23;20498;-71
2022/06/17 07:28:44;;;;;;;7.00;4.30;;;;;;;23.75;51.69;102399.16;6239234;23;20004;-76
2022/06/17 07:31:09;;;;;;;9.27;5.07;;;;;;;23.72;51.43;102397.56;6237557;23;20008;-67
2022/06/17 07:33:35;;;;;;;5.85;3.80;;;;;;;23.86;50.95;102399.31;6238877;23;20004;-71
2022/06/17 07:36:03;;;;;;;12.45;4.97;;;;;;;24.00;50.17;102395.72;6210217;23;20000;-71
2022/06/17 07:41:18;;;;;;;8.35;4.88;;;;;;;24.13;49.26;102390.38;6238247;23;20274;-72
2022/06/17 07:43:43;;;;;;;7.95;3.22;;;;;;;24.25;48.89;102385.13;6237753;23;20069;-69
2022/06/17 07:46:08;;;;;;;8.02;4.07;;;;;;;24.30;49.11;102393.75;6237834;23;20655;-72
2022/06/17 07:48:35;;;;;;;10.15;4.18;;;;;;;24.27;47.98;102391.28;6238086;23;20500;-71
2022/06/17 07:51:00;;;;;;;8.65;3.67;;;;;;;24.30;47.75;102383.00;6237667;23;20004;-72
2022/06/17 07:53:28;;;;;;;6.40;3.88;;;;;;;24.42;47.79;102367.81;6237573;23;20027;-71
2022/06/17 07:55:55;;;;;;;6.38;3.90;;;;;;;24.60;47.16;102371.06;6238872;23;20004;-76
2022/06/17 07:58:20;;;;;;;12.38;4.18;;;;;;;24.66;46.25;102370.63;6237239;23;20083;-66
2022/06/17 08:00:46;;;;;;;9.68;3.65;;;;;;;24.77;46.56;102369.03;6237447;23;20097;-64
2022/06/17 08:03:14;;;;;;;9.63;3.45;;;;;;;24.86;46.59;102379.13;6238115;23;20380;-69
2022/06/17 08:05:42;;;;;;;6.90;3.20;;;;;;;24.96;45.83;102385.63;6236347;23;20452;-70
2022/06/17 08:08:08;;;;;;;8.30;3.00;;;;;;;24.95;45.25;102381.19;6238672;23;20011;-85
2022/06/17 08:10:35;;;;;;;5.32;2.67;;;;;;;25.05;45.02;102385.94;6208650;23;20020;-76
2022/06/17 08:13:02;;;;;;;7.53;3.28;;;;;;;25.06;44.89;102398.44;6207175;23;20001;-70
2022/06/17 08:15:28;;;;;;;10.32;3.00;;;;;;;25.04;42.65;102395.84;6207617;23;20453;-68
2022/06/17 08:17:53;;;;;;;7.80;2.97;;;;;;;25.19;43.59;102398.44;6205486;23;20028;-63
2022/06/17 08:20:22;;;;;;;6.65;2.90;;;;;;;25.15;42.28;102402.31;6207331;23;20410;-69
2022/06/17 08:22:48;;;;;;;3.95;2.42;;;;;;;25.16;41.62;102410.28;6206481;23;20067;-69
2022/06/17 08:25:13;;;;;;;3.67;2.20;;;;;;;25.30;41.44;102390.41;6180780;23;20009;-78
2022/06/17 08:27:48;;;;;;;5.35;2.47;;;;;;;25.29;42.50;102383.31;6206874;23;20010;-80
2022/06/17 08:30:15;;;;;;;7.90;2.58;;;;;;;25.34;43.01;102380.25;6207612;23;20012;-68
2022/06/17 08:32:46;;;;;;;9.60;2.83;;;;;;;25.40;42.11;102379.81;6207934;23;20087;-68
2022/06/17 08:35:13;;;;;;;6.32;2.17;;;;;;;25.58;42.08;102392.91;6179797;23;20046;-77
2022/06/17 08:37:38;;;;;;;3.50;2.25;;;;;;;25.58;41.75;102382.13;6205977;23;20005;-66
2022/06/17 08:40:29;;;;;;;6.57;2.50;;;;;;;25.73;41.20;102386.41;6205155;23;20050;-66
2022/06/17 08:43:33;;;;;;;11.30;2.80;;;;;;;25.76;39.58;102397.97;6145428;23;20034;-68
2022/06/17 08:46:16;;;;;;;7.95;2.40;;;;;;;25.79;39.81;102408.53;6206686;23;19997;-69
2022/06/17 08:49:00;;;;;;;5.45;2.95;;;;;;;25.89;40.13;102398.78;6207500;23;20005;-68
2022/06/17 08:51:59;;;;;;;13.00;3.17;;;;;;;25.84;41.01;102392.84;6206012;23;20037;-69
2022/06/17 08:54:39;;;;;;;5.28;3.08;;;;;;;26.06;41.13;102393.91;6207149;23;20498;-66
2022/06/17 08:57:29;;;;;;;7.10;2.90;;;;;;;26.04;41.54;102394.06;6205641;23;20039;-68
2022/06/17 09:00:05;;;;;;;7.80;3.15;;;;;;;26.03;40.38;102395.00;6205308;23;20421;-66
2022/06/17 09:03:17;;;;;;;6.75;3.03;;;;;;;26.26;40.19;102397.81;6207561;23;20011;-69
2022/06/17 09:05:54;;;;;;;4.30;2.35;;;;;;;26.38;40.71;102390.63;6204798;23;20076;-64
2022/06/17 09:08:34;;;;;;;8.32;3.17;;;;;;;26.48;41.14;102397.03;6207893;23;20004;-68
2022/06/17 09:11:14;;;;;;;5.88;2.63;;;;;;;26.40;41.00;102399.47;6236281;23;20094;-72
2022/06/17 09:14:08;;;;;;;7.05;3.17;;;;;;;26.42;41.28;102400.19;6237156;23;20008;-70
2022/06/17 09:16:36;;;;;;;10.73;2.90;;;;;;;26.59;41.59;102398.03;6237440;23;20008;-70
2022/06/17 09:19:03;;;;;;;5.88;2.80;;;;;;;26.65;41.60;102394.84;6235657;23;20012;-70
2022/06/17 09:21:57;;;;;;;7.93;3.10;;;;;;;26.77;40.15;102395.72;6235967;23;20333;-76
2022/06/17 09:24:26;;;;;;;5.93;2.83;;;;;;;26.87;39.92;102398.53;6234536;23;20008;-72
2022/06/17 09:26:53;;;;;;;;;;;;;;;26.95;40.29;102403.34;6209703;23;20043;-70
2022/06/17 09:29:33;;;;;;;7.60;3.05;;;;;;;27.00;38.45;102395.75;6208498;23;19908;-69
2022/06/17 09:32:14;;;;;;;6.43;3.13;;;;;;;27.03;40.22;102395.50;6236849;23;20012;-70
2022/06/17 09:34:46;;;;;;;5.35;2.83;;;;;;;27.06;39.15;102386.28;6209778;23;20443;-65
2022/06/17 09:37:17;;;;;;;9.55;2.92;;;;;;;27.11;38.41;102386.75;6234852;23;20420;-62
2022/06/17 09:39:56;;;;;;;8.25;2.95;;;;;;;27.20;38.92;102394.13;6209222;23;20000;-63
2022/06/17 09:42:23;;;;;;;8.60;3.17;;;;;;;27.29;38.90;102389.81;6235811;23;20004;-64
2022/06/17 09:45:05;;;;;;;5.60;2.90;;;;;;;27.30;37.46;102383.41;6210720;23;20028;-65
2022/06/17 09:47:38;;;;;;;8.48;2.63;;;;;;;27.27;38.32;102390.94;6209734;23;20000;-64
2022/06/17 09:50:11;;;;;;;7.82;2.63;;;;;;;27.46;38.27;102385.75;6209651;23;20008;-71
2022/06/17 09:52:41;;;;;;;7.82;2.83;;;;;;;27.58;38.32;102383.00;6209680;23;20004;-66
2022/06/17 09:55:41;;;;;;;6.18;2.58;;;;;;;27.75;37.62;102379.75;6234357;23;20008;-67
2022/06/17 09:58:25;;;;;;;8.35;2.42;;;;;;;27.77;37.98;102376.06;6233749;23;20016;-66
2022/06/17 10:00:56;;;;;;;8.85;3.28;;;;;;;27.74;37.10;102361.81;6208892;23;20000;-67
2022/06/17 10:03:31;;;;;;;10.10;2.92;;;;;;;27.77;37.48;102359.81;6206938;23;20008;-64
2022/06/17 10:06:03;;;;;;;9.50;2.95;;;;;;;27.90;36.97;102363.19;6233668;23;20004;-66
2022/06/17 10:08:53;;;;;;;7.45;2.92;;;;;;;27.66;38.36;102361.56;6234806;23;20500;-67
2022/06/17 10:11:27;;;;;;;5.60;2.97;;;;;;;27.83;37.71;102343.91;6233622;23;20054;-66
2022/06/17 10:14:08;;;;;;;9.65;3.10;;;;;;;27.84;38.23;102350.22;6235418;23;20046;-65
2022/06/17 10:20:00;;;;;;;8.23;2.70;;;;;;;28.30;36.93;102340.00;6235541;23;20035;-65
2022/06/17 10:22:39;;;;;;;7.93;2.65;;;;;;;28.40;36.95;102340.03;6235584;23;20000;-66
2022/06/17 10:25:32;;;;;;;6.28;3.28;;;;;;;28.51;36.62;102342.66;6208540;23;20004;-66
2022/06/17 10:28:06;;;;;;;5.68;2.75;;;;;;;28.64;36.02;102338.88;6235448;23;20083;-66
2022/06/17 10:30:53;;;;;;;7.90;2.60;;;;;;;28.61;37.62;102336.44;6209856;23;20008;-66
2022/06/17 10:33:18;;;;;;;5.38;2.60;;;;;;;28.79;36.87;102343.94;6235756;23;20008;-65
2022/06/17 10:35:46;;;;;;;13.13;2.83;;;;;;;28.90;37.13;102343.84;6235822;23;19993;-65
2022/06/17 10:38:21;;;;;;;5.18;2.60;;;;;;;29.08;36.58;102335.91;6209017;23;20004;-68
2022/06/17 10:40:46;;;;;;;3.03;2.25;;;;;;;29.24;34.51;102343.53;6236616;23;20305;-66
2022/06/17 10:43:17;;;;;;;6.47;2.95;;;;;;;29.21;35.70;102323.94;6235934;23;20007;-67
2022/06/17 10:45:43;;;;;;;7.00;2.50;;;;;;;29.25;36.51;102318.09;6208674;23;20103;-67
2022/06/17 10:48:19;;;;;;;9.00;2.47;;;;;;;29.26;34.56;102319.81;6235673;23;20087;-68
2022/06/17 10:50:45;;;;;;;7.43;2.53;;;;;;;29.08;35.74;102316.06;6234891;23;20012;-66
2022/06/17 10:53:18;;;;;;;3.75;2.53;;;;;;;29.36;34.29;102319.84;6236365;23;20018;-67
2022/06/17 10:55:46;;;;;;;7.93;2.75;;;;;;;29.21;35.69;102326.66;6210268;23;20008;-66
2022/06/17 10:58:19;;;;;;;8.27;2.70;;;;;;;29.14;34.48;102318.25;6235013;23;20004;-66
2022/06/17 11:01:02;;;;;;;5.13;2.50;;;;;;;29.47;34.49;102313.38;6235865;23;20309;-66
2022/06/17 11:03:38;;;;;;;8.15;2.38;;;;;;;29.74;33.62;102306.41;6235880;23;19996;-66
2022/06/17 11:06:15;;;;;;;6.13;2.58;;;;;;;29.71;33.58;102306.69;6235110;23;20000;-66
2022/06/17 11:08:49;;;;;;;8.60;2.33;;;;;;;29.88;33.94;102294.25;6210488;23;20012;-66
2022/06/17 11:14:04;;;;;;;6.22;2.25;;;;;;;30.11;33.58;102284.91;6232722;23;20964;-67
2022/06/17 11:16:35;;;;;;;7.68;2.22;;;;;;;30.28;31.68;102283.34;6235027;23;20096;-68
2022/06/17 11:19:03;;;;;;;6.25;2.63;;;;;;;30.09;33.27;102279.63;6235784;23;20035;-66
2022/06/17 11:21:36;;;;;;;4.95;2.40;;;;;;;30.17;33.68;102273.50;6237765;22;20011;-68
2022/06/17 11:24:01;;;;;;;9.00;2.60;;;;;;;30.40;32.16;102273.13;6236071;23;20076;-68
2022/06/17 11:26:33;;;;;;;6.88;2.22;;;;;;;30.75;31.62;102263.34;6236315;23;20429;-66
2022/06/17 11:29:08;;;;;;;11.15;2.67;;;;;;;30.93;33.82;102261.69;6237185;22;20075;-67
2022/06/17 11:31:39;;;;;;;6.53;2.38;;;;;;;30.63;32.59;102259.13;6210661;23;20010;-66
2022/06/17 11:34:17;;;;;;;2.95;1.90;;;;;;;31.03;33.12;102262.47;6236807;22;20476;-67
2022/06/17 11:37:10;;;;;;;7.43;2.53;;;;;;;31.42;31.41;102255.06;6236234;22;20004;-67
2022/06/17 11:39:37;;;;;;;4.15;1.80;;;;;;;31.40;32.25;102260.66;6238402;23;20004;-67
2022/06/17 11:42:13;;;;;;;7.10;2.17;;;;;;;31.33;30.57;102268.56;6238208;22;20769;-65
2022/06/17 11:44:48;;;;;;;8.30;2.65;;;;;;;31.20;31.65;102271.66;6237880;22;20109;-65
2022/06/17 11:47:18;;;;;;;5.22;2.03;;;;;;;31.49;31.22;102270.63;6234709;23;20000;-65
2022/06/17 11:49:44;;;;;;;7.50;1.95;;;;;;;31.34;32.90;102275.72;6236446;23;20054;-64
2022/06/17 11:52:10;;;;;;;7.50;2.30;;;;;;;31.13;31.66;102276.91;6234071;23;20020;-67